createdAt,value
2022-12-03T00:03:01.308Z,102356.66
2022-12-03T00:06:02.956Z,102353.19
2022-12-03T00:09:04.794Z,102343.59
2022-12-03T00:12:06.451Z,102347.09
2022-12-03T00:15:09.466Z,102350.63
2022-12-03T00:18:11.466Z,102342.72
2022-12-03T00:21:13.173Z,102339.19
2022-12-03T00:24:14.711Z,102348.00
2022-12-03T00:27:16.267Z,102345.38
2022-12-03T00:30:18.148Z,102346.22
2022-12-03T00:33:20.674Z,102348.00
2022-12-03T00:36:22.235Z,102348.00
2022-12-03T00:39:23.787Z,102341.88
2022-12-03T00:42:25.342Z,102340.97
2022-12-03T00:45:26.911Z,102348.00
2022-12-03T00:48:28.447Z,102340.13
2022-12-03T00:51:30.022Z,102340.16
2022-12-03T00:54:32.266Z,102346.28
2022-12-03T00:57:34.028Z,102341.91
2022-12-03T01:00:36.147Z,102341.06
2022-12-03T01:03:37.720Z,102334.03
2022-12-03T01:06:39.825Z,102334.03
2022-12-03T01:09:41.412Z,102331.44
2022-12-03T01:12:43.047Z,102335.81
2022-12-03T01:15:44.658Z,102334.06
2022-12-03T01:18:46.649Z,102328.81
2022-12-03T01:21:50.222Z,102334.06
2022-12-03T01:24:52.631Z,102336.69
2022-12-03T01:27:54.379Z,102343.69
2022-12-03T01:31:14.687Z,102345.47
2022-12-03T01:34:16.270Z,102343.69
2022-12-03T01:37:19.574Z,102338.47
2022-12-03T01:40:22.191Z,102341.97
2022-12-03T01:43:23.947Z,102339.41
2022-12-03T01:46:32.817Z,102334.16
2022-12-03T01:49:42.079Z,102340.31
2022-12-03T01:52:44.451Z,102337.66
2022-12-03T01:55:48.843Z,102340.28
2022-12-03T01:58:50.860Z,102344.66
2022-12-03T02:01:52.494Z,102338.56
2022-12-03T02:04:55.366Z,102341.19
2022-12-03T02:07:58.136Z,102344.69
2022-12-03T02:11:28.667Z,102341.19
2022-12-03T02:14:30.197Z,102348.22
2022-12-03T02:17:32.087Z,102342.97
2022-12-03T02:20:41.387Z,102343.84
2022-12-03T02:23:51.979Z,102344.72
2022-12-03T02:26:53.624Z,102337.72
2022-12-03T02:29:55.389Z,102342.13
2022-12-03T02:32:58.101Z,102338.63
2022-12-03T02:36:03.631Z,102338.66
2022-12-03T02:39:06.089Z,102342.19
2022-12-03T02:42:26.519Z,102350.97
2022-12-03T02:45:32.286Z,102349.22
2022-12-03T02:48:37.164Z,102349.25
2022-12-03T02:51:38.743Z,102347.50
2022-12-03T02:54:40.806Z,102347.53
2022-12-03T02:57:44.970Z,102361.53
2022-12-03T03:00:47.144Z,102358.09
2022-12-03T03:03:50.290Z,102354.56
2022-12-03T03:06:52.623Z,102356.34
2022-12-03T03:09:54.212Z,102352.00
2022-12-03T03:12:56.392Z,102352.84
2022-12-03T03:15:58.133Z,102350.25
2022-12-03T03:19:00.152Z,102342.38
2022-12-03T03:22:01.763Z,102342.38
2022-12-03T03:25:04.678Z,102338.88
2022-12-03T03:28:07.481Z,102337.16
2022-12-03T03:31:11.448Z,102332.78
2022-12-03T03:34:14.652Z,102345.06
2022-12-03T03:37:16.416Z,102326.69
2022-12-03T03:40:18.161Z,102328.47
2022-12-03T03:43:22.198Z,102326.72
2022-12-03T03:46:24.070Z,102324.09
2022-12-03T03:49:26.122Z,102320.63
2022-12-03T03:52:27.912Z,102315.41
2022-12-03T03:55:30.731Z,102318.91
2022-12-03T03:58:32.554Z,102323.28
2022-12-03T04:01:34.385Z,102325.03
2022-12-03T04:04:37.753Z,102329.44
2022-12-03T04:07:39.354Z,102328.56
2022-12-03T04:10:59.402Z,102329.44
2022-12-03T04:14:00.994Z,102325.97
2022-12-03T04:17:02.647Z,102339.97
2022-12-03T04:20:04.937Z,102343.44
2022-12-03T04:23:07.106Z,102340.84
2022-12-03T04:26:27.136Z,102333.84
2022-12-03T04:29:28.696Z,102337.34
2022-12-03T04:32:48.835Z,102339.09
2022-12-03T04:35:50.479Z,102338.22
2022-12-03T04:38:52.103Z,102332.09
2022-12-03T04:41:53.658Z,102351.34
2022-12-03T04:44:55.389Z,102344.34
2022-12-03T04:47:57.208Z,102347.00
2022-12-03T04:50:58.894Z,102344.38
2022-12-03T04:54:00.499Z,102337.41
2022-12-03T04:57:02.411Z,102336.53
2022-12-03T05:00:05.488Z,102341.78
2022-12-03T05:03:07.105Z,102345.28
2022-12-03T05:06:08.695Z,102339.16
2022-12-03T05:09:10.751Z,102326.94
2022-12-03T05:12:12.268Z,102330.44
2022-12-03T05:15:13.854Z,102325.19
2022-12-03T05:18:15.391Z,102319.97
2022-12-03T05:21:16.964Z,102322.56
2022-12-03T05:24:18.503Z,102312.97
2022-12-03T05:27:23.967Z,102311.25
2022-12-03T05:30:26.191Z,102324.34
2022-12-03T05:33:27.815Z,102323.47
2022-12-03T05:36:29.373Z,102319.97
2022-12-03T05:39:31.204Z,102319.97
2022-12-03T05:42:51.402Z,102325.22
2022-12-03T05:45:53.135Z,102321.75
2022-12-03T05:48:54.700Z,102326.97
2022-12-03T05:51:58.732Z,102336.56
2022-12-03T05:55:00.619Z,102332.22
2022-12-03T05:58:02.636Z,102334.84
2022-12-03T06:01:04.231Z,102327.84
2022-12-03T06:04:05.853Z,102329.63
2022-12-03T06:07:13.596Z,102321.75
2022-12-03T06:10:18.640Z,102320.84
2022-12-03T06:13:20.271Z,102314.75
2022-12-03T06:16:22.367Z,102326.09
2022-12-03T06:19:23.947Z,102325.25
2022-12-03T06:22:25.530Z,102323.47
2022-12-03T06:25:27.087Z,102317.34
2022-12-03T06:28:28.712Z,102319.13
2022-12-03T06:31:30.359Z,102316.50
2022-12-03T06:34:32.225Z,102312.13
2022-12-03T06:37:33.800Z,102321.72
2022-12-03T06:40:35.349Z,102321.72
2022-12-03T06:43:36.859Z,102313.84
2022-12-03T06:46:38.455Z,102306.88
2022-12-03T06:49:40.130Z,102301.66
2022-12-03T06:52:41.639Z,102305.13
2022-12-03T06:55:43.206Z,102308.63
2022-12-03T06:58:44.709Z,102317.31
2022-12-03T07:01:46.346Z,102323.44
2022-12-03T07:04:47.997Z,102319.94
2022-12-03T07:07:52.182Z,102323.44
2022-12-03T07:10:54.450Z,102325.19
2022-12-03T07:14:00.085Z,102323.44
2022-12-03T07:17:04.700Z,102314.72
2022-12-03T07:20:07.203Z,102307.75
2022-12-03T07:23:08.756Z,102311.22
2022-12-03T07:26:10.324Z,102308.59
2022-12-03T07:29:11.879Z,102306.84
2022-12-03T07:32:13.427Z,102309.47
2022-12-03T07:35:15.013Z,102305.97
2022-12-03T07:38:16.624Z,102311.19
2022-12-03T07:41:18.205Z,102304.22
2022-12-03T07:44:19.739Z,102299.84
2022-12-03T07:47:21.419Z,102298.97
2022-12-03T07:50:23.046Z,102300.75
2022-12-03T07:53:24.639Z,102296.38
2022-12-03T07:56:26.143Z,102299.84
2022-12-03T07:59:27.708Z,102301.59
2022-12-03T08:02:29.300Z,102303.38
2022-12-03T08:05:30.975Z,102299.84
2022-12-03T08:08:32.478Z,102297.22
2022-12-03T08:11:34.196Z,102293.78
2022-12-03T08:14:35.786Z,102286.78
2022-12-03T08:17:39.614Z,102295.47
2022-12-03T08:20:43.194Z,102303.34
2022-12-03T08:23:45.182Z,102301.63
2022-12-03T08:26:48.701Z,102298.13
2022-12-03T08:29:50.229Z,102291.13
2022-12-03T08:32:52.229Z,102302.50
2022-12-03T08:35:54.709Z,102287.72
2022-12-03T08:39:25.398Z,102296.44
2022-12-03T08:42:42.722Z,102293.81
2022-12-03T08:45:45.520Z,102292.94
2022-12-03T08:48:49.332Z,102292.03
2022-12-03T08:51:55.986Z,102287.66
2022-12-03T08:54:57.940Z,102286.81
2022-12-03T08:58:00.166Z,102292.91
2022-12-03T09:01:10.799Z,102292.03
2022-12-03T09:04:27.074Z,102290.28
2022-12-03T09:07:28.753Z,102290.28
2022-12-03T09:10:30.349Z,102299.00
2022-12-03T09:13:31.915Z,102286.81
2022-12-03T09:16:33.536Z,102287.66
2022-12-03T09:19:35.200Z,102291.16
2022-12-03T09:22:36.759Z,102288.56
2022-12-03T09:25:38.398Z,102292.03
2022-12-03T09:28:40.042Z,102291.16
2022-12-03T09:31:41.813Z,102290.31
2022-12-03T09:34:43.462Z,102292.94
2022-12-03T09:37:44.983Z,102285.97
2022-12-03T09:40:46.571Z,102280.69
2022-12-03T09:44:03.924Z,102280.69
2022-12-03T09:47:06.971Z,102278.94
2022-12-03T09:50:14.400Z,102278.09
2022-12-03T09:53:19.431Z,102274.59
2022-12-03T09:56:23.402Z,102275.47
2022-12-03T09:59:29.730Z,102266.75
2022-12-03T10:02:31.494Z,102276.34
2022-12-03T10:05:34.673Z,102265.88
2022-12-03T10:08:54.870Z,102268.50
2022-12-03T10:11:59.004Z,102273.75
2022-12-03T10:15:00.704Z,102269.38
2022-12-03T10:18:18.083Z,102262.41
2022-12-03T10:21:25.394Z,102254.53
2022-12-03T10:24:36.699Z,102258.03
2022-12-03T10:27:40.118Z,102251.91
2022-12-03T10:30:54.729Z,102253.66
2022-12-03T10:33:58.364Z,102250.16
2022-12-03T10:37:22.039Z,102250.16
2022-12-03T10:40:26.510Z,102240.53
2022-12-03T10:43:28.067Z,102245.81
2022-12-03T10:46:29.725Z,102243.19
2022-12-03T10:49:31.500Z,102240.53
2022-12-03T10:52:33.310Z,102234.44
2022-12-03T10:55:39.775Z,102236.19
2022-12-03T10:58:42.183Z,102230.97
2022-12-03T11:01:44.195Z,102226.59
2022-12-03T11:04:45.832Z,102229.22
2022-12-03T11:07:47.822Z,102223.97
2022-12-03T11:10:57.826Z,102224.81
2022-12-03T11:14:03.912Z,102221.34
2022-12-03T11:17:07.877Z,102216.97
2022-12-03T11:20:24.902Z,102214.38
2022-12-03T11:23:44.798Z,102216.13
2022-12-03T11:26:46.287Z,102221.34
2022-12-03T11:29:59.517Z,102217.84
2022-12-03T11:33:01.793Z,102200.38
2022-12-03T11:36:03.347Z,102193.41
2022-12-03T11:39:04.907Z,102185.56
2022-12-03T11:42:27.514Z,102188.16
2022-12-03T11:45:33.726Z,102182.91
2022-12-03T11:48:44.404Z,102182.03
2022-12-03T11:51:46.031Z,102176.81
2022-12-03T11:54:54.870Z,102167.16
2022-12-03T11:58:05.446Z,102179.38
2022-12-03T12:01:08.859Z,102178.50
2022-12-03T12:04:32.524Z,102182.00
2022-12-03T12:07:37.786Z,102176.75
2022-12-03T12:10:43.883Z,102164.53
2022-12-03T12:13:45.364Z,102161.03
2022-12-03T12:16:55.434Z,102153.13
2022-12-03T12:20:24.934Z,102136.53
2022-12-03T12:23:29.019Z,102139.16
2022-12-03T12:26:30.551Z,102133.03
2022-12-03T12:29:32.578Z,102133.03
2022-12-03T12:32:44.120Z,102119.06
2022-12-03T12:35:45.743Z,102126.06
2022-12-03T12:38:47.268Z,102123.44
2022-12-03T12:41:50.406Z,102127.81
2022-12-03T12:44:52.470Z,102126.06
2022-12-03T12:47:54.011Z,102116.47
2022-12-03T12:51:21.103Z,102112.06
2022-12-03T12:54:22.657Z,102111.19
2022-12-03T12:57:24.430Z,102107.72
2022-12-03T13:00:25.997Z,102095.44
2022-12-03T13:03:33.040Z,102098.97
2022-12-03T13:06:34.731Z,102100.69
2022-12-03T13:09:36.246Z,102096.31
2022-12-03T13:12:39.182Z,102094.56
2022-12-03T13:16:07.121Z,102092.81
2022-12-03T13:19:29.173Z,102092.78
2022-12-03T13:22:30.720Z,102085.81
2022-12-03T13:29:02.043Z,102072.72
2022-12-03T13:32:11.590Z,102080.59
2022-12-03T13:35:31.320Z,102070.09
2022-12-03T13:38:32.886Z,102066.47
2022-12-03T13:41:52.659Z,102069.81
2022-12-03T13:44:54.459Z,102062.81
2022-12-03T13:47:57.500Z,102062.81
2022-12-03T13:51:12.559Z,102057.56
2022-12-03T13:54:22.498Z,102058.47
2022-12-03T13:57:24.511Z,102064.56
2022-12-03T14:00:26.197Z,102062.84
2022-12-03T14:03:27.820Z,102062.88
2022-12-03T14:06:29.814Z,102061.13
2022-12-03T14:09:31.729Z,102057.66
2022-12-03T14:12:36.422Z,102055.91
2022-12-03T14:15:38.112Z,102052.41
2022-12-03T14:18:39.718Z,102056.75
2022-12-03T14:21:41.843Z,102055.03
2022-12-03T14:24:43.388Z,102052.41
2022-12-03T14:27:44.895Z,102059.38
2022-12-03T14:30:46.660Z,102058.50
2022-12-03T14:33:48.239Z,102054.13
2022-12-03T14:36:49.884Z,102055.81
2022-12-03T14:39:51.549Z,102048.84
2022-12-03T14:42:53.440Z,102049.72
2022-12-03T14:45:55.220Z,102055.81
2022-12-03T14:48:56.815Z,102044.44
2022-12-03T14:51:58.368Z,102047.06
2022-12-03T14:54:59.960Z,102039.22
2022-12-03T14:58:01.536Z,102038.34
2022-12-03T15:01:03.290Z,102030.47
2022-12-03T15:04:05.790Z,102039.22
2022-12-03T15:07:07.871Z,102028.72
2022-12-03T15:10:09.866Z,102034.00
2022-12-03T15:13:11.436Z,102033.88
2022-12-03T15:16:12.987Z,102041.78
2022-12-03T15:19:14.811Z,102029.56
2022-12-03T15:22:16.368Z,102031.31
2022-12-03T15:25:24.274Z,102026.09
2022-12-03T15:28:26.036Z,102025.22
2022-12-03T15:31:28.000Z,102028.75
2022-12-03T15:34:29.592Z,102019.16
2022-12-03T15:37:31.117Z,102016.53
2022-12-03T15:40:32.744Z,102020.06
2022-12-03T15:43:34.283Z,102016.56
2022-12-03T15:46:36.024Z,102006.94
2022-12-03T15:49:37.595Z,102019.00
2022-12-03T15:52:39.178Z,102018.84
2022-12-03T15:55:40.700Z,102012.75
2022-12-03T15:58:42.456Z,102011.78
2022-12-03T16:01:44.078Z,102020.47
2022-12-03T16:04:45.632Z,102017.91
2022-12-03T16:07:47.148Z,102016.22
2022-12-03T16:10:48.795Z,102018.88
2022-12-03T16:13:50.361Z,102011.03
2022-12-03T16:16:52.072Z,102025.06
2022-12-03T16:19:53.801Z,102021.63
2022-12-03T16:22:55.580Z,102023.38
2022-12-03T16:25:57.124Z,102024.31
2022-12-03T16:28:58.792Z,102020.84
2022-12-03T16:32:00.407Z,102022.63
2022-12-03T16:35:02.008Z,102019.13
2022-12-03T16:38:03.556Z,102020.88
2022-12-03T16:41:05.185Z,102027.03
2022-12-03T16:44:06.715Z,102031.38
2022-12-03T16:47:08.250Z,102031.38
2022-12-03T16:50:15.878Z,102023.53
2022-12-03T16:53:21.532Z,102021.72
2022-12-03T16:56:23.135Z,102029.59
2022-12-03T16:59:24.886Z,102038.38
2022-12-03T17:02:27.729Z,102028.81
2022-12-03T17:05:29.497Z,102028.81
2022-12-03T17:08:31.579Z,102019.25
2022-12-03T17:11:33.159Z,102015.81
2022-12-03T17:14:34.655Z,102011.47
2022-12-03T17:17:36.437Z,102005.38
2022-12-03T17:20:38.009Z,101998.41
2022-12-03T17:23:39.837Z,102010.66
2022-12-03T17:26:42.052Z,102011.53
2022-12-03T17:29:43.881Z,102008.91
2022-12-03T17:32:45.495Z,102009.81
2022-12-03T17:35:47.079Z,102008.94
2022-12-03T17:38:48.578Z,102015.06
2022-12-03T17:41:50.121Z,102011.59
2022-12-03T17:44:51.646Z,102013.34
2022-12-03T17:47:53.236Z,102006.41
2022-12-03T17:50:55.422Z,102005.53
2022-12-03T17:53:57.032Z,101997.69
2022-12-03T17:56:58.582Z,102000.34
2022-12-03T18:00:00.116Z,101999.47
2022-12-03T18:03:01.736Z,102005.56
2022-12-03T18:06:04.219Z,102004.69
2022-12-03T18:09:06.061Z,102005.56
2022-12-03T18:12:07.754Z,102006.44
2022-12-03T18:15:09.811Z,102009.97
2022-12-03T18:18:11.523Z,102008.22
2022-12-03T18:21:13.591Z,102006.47
2022-12-03T18:24:15.180Z,102008.22
2022-12-03T18:27:16.765Z,102006.50
2022-12-03T18:30:18.380Z,102019.56
2022-12-03T18:33:21.499Z,102011.75
2022-12-03T18:36:25.859Z,102007.41
2022-12-03T18:39:38.164Z,102013.53
2022-12-03T18:42:39.720Z,102012.69
2022-12-03T18:45:41.702Z,102010.06
2022-12-03T18:48:45.271Z,102005.69
2022-12-03T18:51:48.318Z,102005.72
2022-12-03T18:54:50.147Z,102009.19
2022-12-03T18:57:51.739Z,102006.56
2022-12-03T19:00:53.301Z,102009.16
2022-12-03T19:03:54.955Z,102009.19
2022-12-03T19:06:56.759Z,102010.06
2022-12-03T19:09:58.358Z,102009.22
2022-12-03T19:12:59.949Z,102004.84
2022-12-03T19:16:03.686Z,101998.75
2022-12-03T19:19:07.502Z,101995.28
2022-12-03T19:22:09.076Z,101999.66
2022-12-03T19:25:10.839Z,102000.53
2022-12-03T19:28:12.371Z,101988.31
2022-12-03T19:31:16.366Z,101997.06
2022-12-03T19:34:18.299Z,102003.19
2022-12-03T19:37:20.117Z,101992.72
2022-12-03T19:40:21.643Z,101997.97
2022-12-03T19:43:23.433Z,102000.59
2022-12-03T19:46:28.771Z,101987.53
2022-12-03T19:49:30.379Z,101997.13
2022-12-03T19:52:35.440Z,101991.00
2022-12-03T19:55:37.041Z,101998.00
2022-12-03T19:58:40.444Z,101991.03
2022-12-03T20:01:43.469Z,101994.50
2022-12-03T20:04:45.219Z,101998.84
2022-12-03T20:07:46.817Z,102008.44
2022-12-03T20:10:48.478Z,102004.94
2022-12-03T20:13:54.192Z,102005.81
2022-12-03T20:16:55.951Z,102007.59
2022-12-03T20:19:57.945Z,102002.34
2022-12-03T20:22:59.622Z,101999.72
2022-12-03T20:26:01.972Z,102001.47
2022-12-03T20:29:03.532Z,102010.19
2022-12-03T20:32:07.035Z,101998.88
2022-12-03T20:35:08.971Z,102000.59
2022-12-03T20:38:10.474Z,101993.63
2022-12-03T20:41:14.831Z,101994.53
2022-12-03T20:44:16.568Z,101993.66
2022-12-03T20:47:19.323Z,101986.69
2022-12-03T20:50:20.844Z,101995.41
2022-12-03T20:53:25.241Z,101983.22
2022-12-03T20:56:31.350Z,101995.44
2022-12-03T20:59:33.110Z,101981.50
2022-12-03T21:02:34.751Z,101984.13
2022-12-03T21:05:36.352Z,101982.38
2022-12-03T21:08:42.703Z,101985.88
2022-12-03T21:11:44.567Z,101992.84
2022-12-03T21:14:46.148Z,101993.72
2022-12-03T21:17:47.881Z,101982.38
2022-12-03T21:20:49.424Z,101979.78
2022-12-03T21:23:50.961Z,101979.78
2022-12-03T21:26:52.535Z,101980.69
2022-12-03T21:29:54.536Z,101976.31
2022-12-03T21:32:56.186Z,101983.31
2022-12-03T21:35:58.672Z,101980.72
2022-12-03T21:39:00.481Z,101980.72
2022-12-03T21:42:25.871Z,101981.56
2022-12-03T21:45:25.088Z,101976.34
2022-12-03T21:48:26.671Z,101982.44
2022-12-03T21:51:28.279Z,101981.59
2022-12-03T21:54:29.793Z,101976.34
2022-12-03T21:57:31.452Z,101990.31
2022-12-03T22:00:32.992Z,101995.56
2022-12-03T22:03:34.526Z,101993.81
2022-12-03T22:06:36.030Z,101986.81
2022-12-03T22:09:37.667Z,101983.34
2022-12-03T22:12:40.869Z,101986.84
2022-12-03T22:15:42.543Z,101992.06
2022-12-03T22:18:44.423Z,101998.19
2022-12-03T22:21:46.573Z,101994.69
2022-12-03T22:24:48.135Z,101986.84
2022-12-03T22:27:49.680Z,101990.34
2022-12-03T22:30:51.275Z,101992.09
2022-12-03T22:33:52.871Z,101985.13
2022-12-03T22:36:54.460Z,101984.22
2022-12-03T22:39:56.188Z,101983.38
2022-12-03T22:42:58.008Z,101979.91
2022-12-03T22:45:59.625Z,101985.13
2022-12-03T22:49:06.803Z,101984.25
2022-12-03T22:52:09.075Z,101979.88
2022-12-03T22:55:10.595Z,101967.66
2022-12-03T22:58:12.301Z,101971.16
2022-12-03T23:01:32.439Z,101972.88
2022-12-03T23:04:34.021Z,101969.41
2022-12-03T23:07:35.634Z,101965.94
2022-12-03T23:10:39.463Z,101956.34
2022-12-03T23:13:41.121Z,101956.34
2022-12-03T23:16:42.803Z,101961.56
2022-12-03T23:19:44.318Z,101955.47
2022-12-03T23:22:45.909Z,101961.56
2022-12-03T23:26:01.706Z,101959.84
2022-12-03T23:29:05.443Z,101966.81
2022-12-03T23:32:06.975Z,101954.63
2022-12-03T23:35:09.214Z,101952.00
2022-12-03T23:38:10.964Z,101964.19
2022-12-03T23:41:18.259Z,101959.84
2022-12-03T23:44:19.847Z,101958.09
2022-12-03T23:47:21.354Z,101959.88
2022-12-03T23:50:22.889Z,101960.75
2022-12-03T23:53:24.422Z,101963.31
2022-12-03T23:56:30.313Z,101961.59
2022-12-03T23:59:32.030Z,101965.06
